sensor_id;sensor_type;location;lat;lon;timestamp;P1;durP1;ratioP1;P2;durP2;ratioP2
1082;SDS011;530;51.448;7.238;2023-08-06T00:00:16;4.00;;;3.43;;
1082;SDS011;530;51.448;7.238;2023-08-06T00:02:42;3.63;;;3.03;;
1082;SDS011;530;51.448;7.238;2023-08-06T00:05:07;3.53;;;3.23;;
1082;SDS011;530;51.448;7.238;2023-08-06T00:07:33;3.70;;;3.27;;
1082;SDS011;530;51.448;7.238;2023-08-06T00:09:59;5.97;;;3.93;;
1082;SDS011;530;51.448;7.238;2023-08-06T00:12:24;3.90;;;3.50;;
1082;SDS011;530;51.448;7.238;2023-08-06T00:14:50;3.90;;;3.50;;
1082;SDS011;530;51.448;7.238;2023-08-06T00:17:17;3.93;;;3.60;;
1082;SDS011;530;51.448;7.238;2023-08-06T00:19:43;4.83;;;3.40;;
1082;SDS011;530;51.448;7.238;2023-08-06T00:22:09;5.00;;;3.97;;
1082;SDS011;530;51.448;7.238;2023-08-06T00:24:34;3.93;;;3.53;;
1082;SDS011;530;51.448;7.238;2023-08-06T00:27:01;7.13;;;3.93;;
1082;SDS011;530;51.448;7.238;2023-08-06T00:29:27;3.50;;;3.20;;
1082;SDS011;530;51.448;7.238;2023-08-06T00:31:53;3.40;;;3.10;;
1082;SDS011;530;51.448;7.238;2023-08-06T00:34:18;3.83;;;3.40;;
1082;SDS011;530;51.448;7.238;2023-08-06T00:36:44;3.60;;;3.30;;
1082;SDS011;530;51.448;7.238;2023-08-06T00:39:10;4.23;;;3.70;;
1082;SDS011;530;51.448;7.238;2023-08-06T00:41:36;3.97;;;3.67;;
1082;SDS011;530;51.448;7.238;2023-08-06T00:44:02;3.93;;;3.53;;
1082;SDS011;530;51.448;7.238;2023-08-06T00:46:27;5.30;;;3.60;;
1082;SDS011;530;51.448;7.238;2023-08-06T00:48:53;4.07;;;3.67;;
1082;SDS011;530;51.448;7.238;2023-08-06T00:51:20;3.47;;;3.10;;
1082;SDS011;530;51.448;7.238;2023-08-06T00:53:47;4.80;;;3.80;;
1082;SDS011;530;51.448;7.238;2023-08-06T00:56:15;4.87;;;3.40;;
1082;SDS011;530;51.448;7.238;2023-08-06T00:58:40;3.97;;;3.57;;
1082;SDS011;530;51.448;7.238;2023-08-06T01:01:07;3.67;;;3.37;;
1082;SDS011;530;51.448;7.238;2023-08-06T01:03:32;4.40;;;3.87;;
1082;SDS011;530;51.448;7.238;2023-08-06T01:05:58;6.10;;;3.83;;
1082;SDS011;530;51.448;7.238;2023-08-06T01:15:04;4.10;;;3.70;;
1082;SDS011;530;51.448;7.238;2023-08-06T01:17:26;6.10;;;3.97;;
1082;SDS011;530;51.448;7.238;2023-08-06T01:19:54;4.10;;;3.70;;
1082;SDS011;530;51.448;7.238;2023-08-06T01:22:20;3.60;;;3.17;;
1082;SDS011;530;51.448;7.238;2023-08-06T01:24:46;3.73;;;3.40;;
1082;SDS011;530;51.448;7.238;2023-08-06T01:29:47;6.13;;;3.90;;
1082;SDS011;530;51.448;7.238;2023-08-06T01:32:18;4.23;;;3.83;;
1082;SDS011;530;51.448;7.238;2023-08-06T01:34:46;5.73;;;3.90;;
1082;SDS011;530;51.448;7.238;2023-08-06T01:37:13;4.33;;;3.47;;
1082;SDS011;530;51.448;7.238;2023-08-06T01:39:40;4.20;;;3.80;;
1082;SDS011;530;51.448;7.238;2023-08-06T01:42:07;4.17;;;3.77;;
1082;SDS011;530;51.448;7.238;2023-08-06T01:44:33;4.80;;;4.23;;
1082;SDS011;530;51.448;7.238;2023-08-06T01:46:59;4.50;;;3.63;;
1082;SDS011;530;51.448;7.238;2023-08-06T01:49:25;3.77;;;3.47;;
1082;SDS011;530;51.448;7.238;2023-08-06T01:51:50;5.07;;;3.70;;
1082;SDS011;530;51.448;7.238;2023-08-06T01:54:16;4.17;;;3.73;;
1082;SDS011;530;51.448;7.238;2023-08-06T01:56:42;4.40;;;4.00;;
1082;SDS011;530;51.448;7.238;2023-08-06T01:59:07;4.80;;;3.70;;
1082;SDS011;530;51.448;7.238;2023-08-06T02:01:33;4.50;;;3.93;;
1082;SDS011;530;51.448;7.238;2023-08-06T02:03:59;4.00;;;3.60;;
1082;SDS011;530;51.448;7.238;2023-08-06T02:06:24;3.93;;;3.63;;
1082;SDS011;530;51.448;7.238;2023-08-06T02:08:50;4.00;;;3.60;;
1082;SDS011;530;51.448;7.238;2023-08-06T02:11:15;4.20;;;3.80;;
1082;SDS011;530;51.448;7.238;2023-08-06T02:13:41;4.07;;;3.67;;
1082;SDS011;530;51.448;7.238;2023-08-06T02:16:07;5.73;;;3.73;;
1082;SDS011;530;51.448;7.238;2023-08-06T02:18:35;4.87;;;4.00;;
1082;SDS011;530;51.448;7.238;2023-08-06T02:21:01;4.13;;;3.73;;
1082;SDS011;530;51.448;7.238;2023-08-06T02:23:27;4.10;;;3.70;;
1082;SDS011;530;51.448;7.238;2023-08-06T02:26:00;4.37;;;3.63;;
1082;SDS011;530;51.448;7.238;2023-08-06T02:28:27;4.20;;;3.30;;
1082;SDS011;530;51.448;7.238;2023-08-06T02:30:54;4.40;;;4.00;;
1082;SDS011;530;51.448;7.238;2023-08-06T02:33:19;5.37;;;4.07;;
1082;SDS011;530;51.448;7.238;2023-08-06T02:35:45;3.53;;;3.23;;
1082;SDS011;530;51.448;7.238;2023-08-06T02:38:11;4.27;;;3.87;;
1082;SDS011;530;51.448;7.238;2023-08-06T02:40:36;5.30;;;4.37;;
1082;SDS011;530;51.448;7.238;2023-08-06T02:43:11;5.40;;;3.63;;
1082;SDS011;530;51.448;7.238;2023-08-06T02:45:37;4.63;;;3.90;;
1082;SDS011;530;51.448;7.238;2023-08-06T02:48:03;5.10;;;3.83;;
1082;SDS011;530;51.448;7.238;2023-08-06T02:50:29;3.80;;;3.40;;
1082;SDS011;530;51.448;7.238;2023-08-06T02:52:55;3.90;;;3.60;;
1082;SDS011;530;51.448;7.238;2023-08-06T02:55:20;4.20;;;3.73;;
1082;SDS011;530;51.448;7.238;2023-08-06T02:57:46;4.67;;;4.03;;
1082;SDS011;530;51.448;7.238;2023-08-06T03:00:12;4.63;;;3.77;;
1082;SDS011;530;51.448;7.238;2023-08-06T03:02:37;6.83;;;3.60;;
1082;SDS011;530;51.448;7.238;2023-08-06T03:05:03;6.77;;;3.87;;
1082;SDS011;530;51.448;7.238;2023-08-06T03:07:31;3.57;;;3.27;;
1082;SDS011;530;51.448;7.238;2023-08-06T03:09:58;4.70;;;3.50;;
1082;SDS011;530;51.448;7.238;2023-08-06T03:12:26;4.17;;;3.80;;
1082;SDS011;530;51.448;7.238;2023-08-06T03:14:52;4.80;;;3.40;;
1082;SDS011;530;51.448;7.238;2023-08-06T03:17:17;4.30;;;3.90;;
1082;SDS011;530;51.448;7.238;2023-08-06T03:19:43;3.47;;;3.17;;
1082;SDS011;530;51.448;7.238;2023-08-06T03:22:09;4.77;;;4.20;;
1082;SDS011;530;51.448;7.238;2023-08-06T03:24:34;4.03;;;3.63;;
1082;SDS011;530;51.448;7.238;2023-08-06T03:27:00;4.87;;;3.83;;
1082;SDS011;530;51.448;7.238;2023-08-06T03:29:26;3.53;;;3.23;;
1082;SDS011;530;51.448;7.238;2023-08-06T03:31:52;5.33;;;3.73;;
1082;SDS011;530;51.448;7.238;2023-08-06T03:34:18;5.43;;;3.80;;
1082;SDS011;530;51.448;7.238;2023-08-06T03:36:44;4.37;;;3.43;;
1082;SDS011;530;51.448;7.238;2023-08-06T03:39:09;4.90;;;4.23;;
1082;SDS011;530;51.448;7.238;2023-08-06T03:41:35;4.10;;;3.70;;
1082;SDS011;530;51.448;7.238;2023-08-06T03:44:01;3.70;;;3.40;;
1082;SDS011;530;51.448;7.238;2023-08-06T03:46:29;5.70;;;3.40;;
1082;SDS011;530;51.448;7.238;2023-08-06T03:48:57;5.63;;;3.90;;
1082;SDS011;530;51.448;7.238;2023-08-06T03:51:23;6.63;;;3.57;;
1082;SDS011;530;51.448;7.238;2023-08-06T03:53:48;3.97;;;3.67;;
1082;SDS011;530;51.448;7.238;2023-08-06T03:56:14;3.83;;;3.30;;
1082;SDS011;530;51.448;7.238;2023-08-06T03:58:39;4.20;;;3.43;;
1082;SDS011;530;51.448;7.238;2023-08-06T04:01:05;4.63;;;3.87;;
1082;SDS011;530;51.448;7.238;2023-08-06T04:03:31;4.07;;;3.20;;
1082;SDS011;530;51.448;7.238;2023-08-06T04:05:57;5.50;;;3.70;;
1082;SDS011;530;51.448;7.238;2023-08-06T04:08:22;4.70;;;4.20;;
1082;SDS011;530;51.448;7.238;2023-08-06T04:10:52;4.10;;;3.37;;
1082;SDS011;530;51.448;7.238;2023-08-06T04:13:17;3.30;;;3.00;;
1082;SDS011;530;51.448;7.238;2023-08-06T04:15:43;7.70;;;3.80;;
1082;SDS011;530;51.448;7.238;2023-08-06T04:18:09;3.20;;;2.90;;
1082;SDS011;530;51.448;7.238;2023-08-06T04:20:41;6.03;;;3.20;;
1082;SDS011;530;51.448;7.238;2023-08-06T04:23:11;4.10;;;3.53;;
1082;SDS011;530;51.448;7.238;2023-08-06T04:25:37;3.50;;;3.20;;
1082;SDS011;530;51.448;7.238;2023-08-06T04:28:03;3.67;;;2.60;;
1082;SDS011;530;51.448;7.238;2023-08-06T04:30:29;4.30;;;2.83;;
1082;SDS011;530;51.448;7.238;2023-08-06T04:32:56;3.57;;;3.27;;
1082;SDS011;530;51.448;7.238;2023-08-06T04:35:22;3.40;;;3.07;;
1082;SDS011;530;51.448;7.238;2023-08-06T04:37:48;3.93;;;2.90;;
1082;SDS011;530;51.448;7.238;2023-08-06T04:40:14;4.20;;;3.00;;
1082;SDS011;530;51.448;7.238;2023-08-06T04:42:40;4.80;;;3.43;;
1082;SDS011;530;51.448;7.238;2023-08-06T04:45:05;4.63;;;3.37;;
1082;SDS011;530;51.448;7.238;2023-08-06T04:47:32;3.53;;;3.23;;
1082;SDS011;530;51.448;7.238;2023-08-06T04:49:57;4.17;;;2.97;;
1082;SDS011;530;51.448;7.238;2023-08-06T04:52:23;3.93;;;3.30;;
1082;SDS011;530;51.448;7.238;2023-08-06T04:54:52;3.30;;;2.93;;
1082;SDS011;530;51.448;7.238;2023-08-06T04:57:18;3.57;;;3.00;;
1082;SDS011;530;51.448;7.238;2023-08-06T04:59:43;4.93;;;2.90;;
1082;SDS011;530;51.448;7.238;2023-08-06T05:02:09;3.83;;;3.40;;
1082;SDS011;530;51.448;7.238;2023-08-06T05:04:35;6.07;;;2.70;;
1082;SDS011;530;51.448;7.238;2023-08-06T05:07:00;5.07;;;3.30;;
1082;SDS011;530;51.448;7.238;2023-08-06T05:09:26;3.60;;;3.00;;
1082;SDS011;530;51.448;7.238;2023-08-06T05:11:52;4.43;;;3.03;;
1082;SDS011;530;51.448;7.238;2023-08-06T05:14:17;3.33;;;2.67;;
1082;SDS011;530;51.448;7.238;2023-08-06T05:16:43;3.90;;;2.93;;
1082;SDS011;530;51.448;7.238;2023-08-06T05:19:09;4.07;;;2.77;;
1082;SDS011;530;51.448;7.238;2023-08-06T05:21:34;5.20;;;3.30;;
1082;SDS011;530;51.448;7.238;2023-08-06T05:24:00;3.03;;;2.73;;
1082;SDS011;530;51.448;7.238;2023-08-06T05:26:25;3.20;;;2.60;;
1082;SDS011;530;51.448;7.238;2023-08-06T05:28:51;4.43;;;2.80;;
1082;SDS011;530;51.448;7.238;2023-08-06T05:31:17;3.10;;;2.80;;
1082;SDS011;530;51.448;7.238;2023-08-06T05:33:42;3.00;;;2.70;;
1082;SDS011;530;51.448;7.238;2023-08-06T05:36:09;6.17;;;3.87;;
1082;SDS011;530;51.448;7.238;2023-08-06T05:38:35;3.60;;;3.00;;
1082;SDS011;530;51.448;7.238;2023-08-06T05:41:00;3.23;;;2.93;;
1082;SDS011;530;51.448;7.238;2023-08-06T05:43:26;4.20;;;3.07;;
1082;SDS011;530;51.448;7.238;2023-08-06T05:45:52;5.30;;;3.37;;
1082;SDS011;530;51.448;7.238;2023-08-06T05:48:17;3.27;;;2.80;;
1082;SDS011;530;51.448;7.238;2023-08-06T05:50:43;3.40;;;3.07;;
1082;SDS011;530;51.448;7.238;2023-08-06T05:53:09;8.43;;;3.17;;
1082;SDS011;530;51.448;7.238;2023-08-06T05:55:34;3.83;;;3.10;;
1082;SDS011;530;51.448;7.238;2023-08-06T05:58:00;4.20;;;3.20;;
1082;SDS011;530;51.448;7.238;2023-08-06T06:00:26;2.83;;;2.63;;
1082;SDS011;530;51.448;7.238;2023-08-06T06:02:52;3.80;;;2.50;;
1082;SDS011;530;51.448;7.238;2023-08-06T06:05:17;4.87;;;2.90;;
1082;SDS011;530;51.448;7.238;2023-08-06T06:07:43;4.10;;;3.50;;
1082;SDS011;530;51.448;7.238;2023-08-06T06:10:09;4.13;;;3.07;;
1082;SDS011;530;51.448;7.238;2023-08-06T06:12:34;3.03;;;2.73;;
1082;SDS011;530;51.448;7.238;2023-08-06T06:15:00;4.30;;;3.30;;
1082;SDS011;530;51.448;7.238;2023-08-06T06:17:26;3.73;;;3.00;;
1082;SDS011;530;51.448;7.238;2023-08-06T06:19:52;2.93;;;2.50;;
1082;SDS011;530;51.448;7.238;2023-08-06T06:22:18;4.40;;;2.90;;
1082;SDS011;530;51.448;7.238;2023-08-06T06:24:44;2.80;;;2.53;;
1082;SDS011;530;51.448;7.238;2023-08-06T06:27:09;2.97;;;2.60;;
1082;SDS011;530;51.448;7.238;2023-08-06T06:29:35;4.57;;;3.23;;
1082;SDS011;530;51.448;7.238;2023-08-06T06:32:01;4.00;;;3.10;;
1082;SDS011;530;51.448;7.238;2023-08-06T06:34:26;2.80;;;2.60;;
1082;SDS011;530;51.448;7.238;2023-08-06T06:36:52;3.53;;;3.23;;
1082;SDS011;530;51.448;7.238;2023-08-06T06:39:18;3.00;;;2.70;;
1082;SDS011;530;51.448;7.238;2023-08-06T06:41:43;3.60;;;3.30;;
1082;SDS011;530;51.448;7.238;2023-08-06T06:44:09;4.60;;;2.57;;
1082;SDS011;530;51.448;7.238;2023-08-06T06:46:35;3.40;;;2.80;;
1082;SDS011;530;51.448;7.238;2023-08-06T06:49:01;4.30;;;2.37;;
1082;SDS011;530;51.448;7.238;2023-08-06T06:51:27;3.13;;;2.40;;
1082;SDS011;530;51.448;7.238;2023-08-06T06:53:52;3.23;;;2.83;;
1082;SDS011;530;51.448;7.238;2023-08-06T06:56:18;4.83;;;2.70;;
1082;SDS011;530;51.448;7.238;2023-08-06T06:58:43;2.70;;;2.50;;
1082;SDS011;530;51.448;7.238;2023-08-06T07:01:09;2.87;;;2.60;;
1082;SDS011;530;51.448;7.238;2023-08-06T07:03:36;3.37;;;2.67;;
1082;SDS011;530;51.448;7.238;2023-08-06T07:06:02;5.40;;;3.20;;
1082;SDS011;530;51.448;7.238;2023-08-06T07:08:28;3.70;;;2.47;;
1082;SDS011;530;51.448;7.238;2023-08-06T07:11:02;3.60;;;2.83;;
1082;SDS011;530;51.448;7.238;2023-08-06T07:13:29;3.73;;;2.40;;
1082;SDS011;530;51.448;7.238;2023-08-06T07:15:55;2.40;;;2.20;;
1082;SDS011;530;51.448;7.238;2023-08-06T07:18:21;2.73;;;1.90;;
1082;SDS011;530;51.448;7.238;2023-08-06T07:20:53;3.37;;;2.30;;
1082;SDS011;530;51.448;7.238;2023-08-06T07:23:20;3.20;;;2.23;;
1082;SDS011;530;51.448;7.238;2023-08-06T07:25:48;3.30;;;2.10;;
1082;SDS011;530;51.448;7.238;2023-08-06T07:28:14;2.33;;;2.10;;
1082;SDS011;530;51.448;7.238;2023-08-06T07:30:43;3.33;;;2.47;;
1082;SDS011;530;51.448;7.238;2023-08-06T07:33:10;2.60;;;2.40;;
1082;SDS011;530;51.448;7.238;2023-08-06T07:35:37;3.10;;;2.20;;
1082;SDS011;530;51.448;7.238;2023-08-06T07:38:03;3.03;;;2.07;;
1082;SDS011;530;51.448;7.238;2023-08-06T07:40:29;2.83;;;2.20;;
1082;SDS011;530;51.448;7.238;2023-08-06T07:42:54;3.17;;;2.20;;
1082;SDS011;530;51.448;7.238;2023-08-06T07:45:20;3.53;;;2.23;;
1082;SDS011;530;51.448;7.238;2023-08-06T07:47:46;4.60;;;2.03;;
1082;SDS011;530;51.448;7.238;2023-08-06T07:50:12;2.93;;;2.57;;
1082;SDS011;530;51.448;7.238;2023-08-06T07:52:38;2.50;;;2.10;;
1082;SDS011;530;51.448;7.238;2023-08-06T07:55:05;4.23;;;2.30;;
1082;SDS011;530;51.448;7.238;2023-08-06T07:57:31;6.13;;;3.00;;
1082;SDS011;530;51.448;7.238;2023-08-06T07:59:57;3.73;;;2.47;;
1082;SDS011;530;51.448;7.238;2023-08-06T08:02:23;3.57;;;2.57;;
1082;SDS011;530;51.448;7.238;2023-08-06T08:04:48;2.40;;;2.20;;
1082;SDS011;530;51.448;7.238;2023-08-06T08:07:14;3.67;;;2.30;;
1082;SDS011;530;51.448;7.238;2023-08-06T08:09:40;3.53;;;3.00;;
1082;SDS011;530;51.448;7.238;2023-08-06T08:12:05;2.47;;;2.27;;
1082;SDS011;530;51.448;7.238;2023-08-06T08:14:31;2.93;;;2.40;;
1082;SDS011;530;51.448;7.238;2023-08-06T08:17:03;3.00;;;2.70;;
1082;SDS011;530;51.448;7.238;2023-08-06T08:19:30;4.30;;;3.47;;
1082;SDS011;530;51.448;7.238;2023-08-06T08:21:57;3.43;;;3.13;;
1082;SDS011;530;51.448;7.238;2023-08-06T08:24:22;3.87;;;2.83;;
1082;SDS011;530;51.448;7.238;2023-08-06T08:26:52;3.50;;;3.20;;
1082;SDS011;530;51.448;7.238;2023-08-06T08:29:19;3.60;;;3.27;;
1082;SDS011;530;51.448;7.238;2023-08-06T08:31:45;3.27;;;2.97;;
1082;SDS011;530;51.448;7.238;2023-08-06T08:34:10;3.13;;;2.80;;
1082;SDS011;530;51.448;7.238;2023-08-06T08:36:36;3.87;;;2.77;;
1082;SDS011;530;51.448;7.238;2023-08-06T08:39:02;3.20;;;2.70;;
1082;SDS011;530;51.448;7.238;2023-08-06T08:41:30;3.00;;;2.50;;
1082;SDS011;530;51.448;7.238;2023-08-06T08:43:56;2.77;;;2.30;;
1082;SDS011;530;51.448;7.238;2023-08-06T08:46:24;3.53;;;3.13;;
1082;SDS011;530;51.448;7.238;2023-08-06T08:48:52;4.53;;;3.20;;
1082;SDS011;530;51.448;7.238;2023-08-06T08:51:19;6.20;;;2.73;;
1082;SDS011;530;51.448;7.238;2023-08-06T08:53:45;3.63;;;3.30;;
1082;SDS011;530;51.448;7.238;2023-08-06T08:56:14;2.67;;;2.30;;
1082;SDS011;530;51.448;7.238;2023-08-06T08:58:40;2.93;;;2.60;;
1082;SDS011;530;51.448;7.238;2023-08-06T09:01:07;3.50;;;2.67;;
1082;SDS011;530;51.448;7.238;2023-08-06T09:03:34;5.73;;;2.63;;
1082;SDS011;530;51.448;7.238;2023-08-06T09:06:01;4.73;;;2.70;;
1082;SDS011;530;51.448;7.238;2023-08-06T09:08:37;5.53;;;2.50;;
1082;SDS011;530;51.448;7.238;2023-08-06T09:11:08;2.70;;;2.50;;
1082;SDS011;530;51.448;7.238;2023-08-06T09:13:37;2.67;;;2.23;;
1082;SDS011;530;51.448;7.238;2023-08-06T09:16:04;3.27;;;2.97;;
1082;SDS011;530;51.448;7.238;2023-08-06T09:18:30;2.70;;;2.50;;
1082;SDS011;530;51.448;7.238;2023-08-06T09:20:56;5.40;;;2.70;;
1082;SDS011;530;51.448;7.238;2023-08-06T09:23:29;6.00;;;3.80;;
1082;SDS011;530;51.448;7.238;2023-08-06T09:25:56;5.20;;;3.53;;
1082;SDS011;530;51.448;7.238;2023-08-06T09:28:22;4.20;;;3.87;;
1082;SDS011;530;51.448;7.238;2023-08-06T09:30:49;4.90;;;3.70;;
1082;SDS011;530;51.448;7.238;2023-08-06T09:33:18;4.20;;;3.43;;
1082;SDS011;530;51.448;7.238;2023-08-06T09:35:45;4.60;;;4.20;;
1082;SDS011;530;51.448;7.238;2023-08-06T09:38:12;5.13;;;3.70;;
1082;SDS011;530;51.448;7.238;2023-08-06T09:40:38;4.17;;;3.77;;
1082;SDS011;530;51.448;7.238;2023-08-06T09:43:05;4.10;;;3.70;;
1082;SDS011;530;51.448;7.238;2023-08-06T09:45:31;4.70;;;3.67;;
1082;SDS011;530;51.448;7.238;2023-08-06T09:48:05;5.50;;;3.90;;
1082;SDS011;530;51.448;7.238;2023-08-06T09:50:32;4.17;;;3.70;;
1082;SDS011;530;51.448;7.238;2023-08-06T09:53:02;5.60;;;3.90;;
1082;SDS011;530;51.448;7.238;2023-08-06T09:55:29;7.10;;;5.47;;
1082;SDS011;530;51.448;7.238;2023-08-06T09:57:55;4.90;;;4.50;;
1082;SDS011;530;51.448;7.238;2023-08-06T10:00:21;4.30;;;3.97;;
1082;SDS011;530;51.448;7.238;2023-08-06T10:02:48;5.90;;;4.40;;
1082;SDS011;530;51.448;7.238;2023-08-06T10:05:16;5.63;;;5.07;;
1082;SDS011;530;51.448;7.238;2023-08-06T10:07:43;5.53;;;5.03;;
1082;SDS011;530;51.448;7.238;2023-08-06T10:10:10;7.20;;;5.13;;
1082;SDS011;530;51.448;7.238;2023-08-06T10:12:37;6.17;;;5.10;;
1082;SDS011;530;51.448;7.238;2023-08-06T10:15:07;6.30;;;5.70;;
1082;SDS011;530;51.448;7.238;2023-08-06T10:17:35;20.10;;;6.40;;
1082;SDS011;530;51.448;7.238;2023-08-06T10:20:03;5.70;;;5.20;;
1082;SDS011;530;51.448;7.238;2023-08-06T10:22:32;5.90;;;5.40;;
1082;SDS011;530;51.448;7.238;2023-08-06T10:24:58;6.13;;;5.63;;
1082;SDS011;530;51.448;7.238;2023-08-06T10:32:55;6.80;;;6.17;;
1082;SDS011;530;51.448;7.238;2023-08-06T10:40:47;5.80;;;5.30;;
1082;SDS011;530;51.448;7.238;2023-08-06T10:43:32;7.13;;;6.43;;
1082;SDS011;530;51.448;7.238;2023-08-06T10:46:03;7.47;;;6.57;;
1082;SDS011;530;51.448;7.238;2023-08-06T10:51:09;6.77;;;5.80;;
1082;SDS011;530;51.448;7.238;2023-08-06T10:53:36;6.93;;;6.33;;
1082;SDS011;530;51.448;7.238;2023-08-06T10:56:11;7.30;;;6.53;;
1082;SDS011;530;51.448;7.238;2023-08-06T10:58:41;7.10;;;6.40;;
1082;SDS011;530;51.448;7.238;2023-08-06T11:01:07;6.90;;;6.30;;
1082;SDS011;530;51.448;7.238;2023-08-06T11:03:33;6.23;;;5.70;;
1082;SDS011;530;51.448;7.238;2023-08-06T11:05:59;6.80;;;6.20;;
1082;SDS011;530;51.448;7.238;2023-08-06T11:08:32;7.50;;;6.80;;
1082;SDS011;530;51.448;7.238;2023-08-06T11:13:36;7.47;;;6.50;;
1082;SDS011;530;51.448;7.238;2023-08-06T11:16:03;6.27;;;5.77;;
1082;SDS011;530;51.448;7.238;2023-08-06T11:18:31;6.50;;;5.90;;
1082;SDS011;530;51.448;7.238;2023-08-06T11:21:00;6.63;;;6.10;;
1082;SDS011;530;51.448;7.238;2023-08-06T11:23:27;5.83;;;5.33;;
1082;SDS011;530;51.448;7.238;2023-08-06T11:25:54;5.60;;;5.17;;
1082;SDS011;530;51.448;7.238;2023-08-06T11:28:23;6.37;;;5.87;;
1082;SDS011;530;51.448;7.238;2023-08-06T11:30:49;10.43;;;6.20;;
1082;SDS011;530;51.448;7.238;2023-08-06T11:33:25;7.37;;;6.67;;
1082;SDS011;530;51.448;7.238;2023-08-06T11:35:51;6.37;;;5.87;;
1082;SDS011;530;51.448;7.238;2023-08-06T11:38:17;7.17;;;6.43;;
1082;SDS011;530;51.448;7.238;2023-08-06T11:40:52;6.37;;;5.87;;
1082;SDS011;530;51.448;7.238;2023-08-06T11:43:18;6.23;;;5.70;;
1082;SDS011;530;51.448;7.238;2023-08-06T11:45:45;5.67;;;5.17;;
1082;SDS011;530;51.448;7.238;2023-08-06T11:48:11;6.90;;;5.77;;
1082;SDS011;530;51.448;7.238;2023-08-06T11:50:37;6.20;;;5.60;;
1082;SDS011;530;51.448;7.238;2023-08-06T11:53:04;6.40;;;5.63;;
1082;SDS011;530;51.448;7.238;2023-08-06T11:55:30;7.33;;;6.60;;
1082;SDS011;530;51.448;7.238;2023-08-06T11:57:57;6.33;;;5.83;;
1082;SDS011;530;51.448;7.238;2023-08-06T12:00:23;7.80;;;6.67;;
1082;SDS011;530;51.448;7.238;2023-08-06T12:02:50;7.30;;;6.70;;
1082;SDS011;530;51.448;7.238;2023-08-06T12:05:18;8.83;;;7.30;;
1082;SDS011;530;51.448;7.238;2023-08-06T12:07:54;7.73;;;7.03;;
1082;SDS011;530;51.448;7.238;2023-08-06T12:10:22;8.03;;;7.33;;
1082;SDS011;530;51.448;7.238;2023-08-06T12:12:49;8.37;;;7.77;;
1082;SDS011;530;51.448;7.238;2023-08-06T12:15:15;8.20;;;7.53;;
1082;SDS011;530;51.448;7.238;2023-08-06T12:17:41;7.83;;;7.03;;
1082;SDS011;530;51.448;7.238;2023-08-06T12:20:07;6.73;;;6.23;;
1082;SDS011;530;51.448;7.238;2023-08-06T12:22:34;6.17;;;5.73;;
1082;SDS011;530;51.448;7.238;2023-08-06T12:25:01;6.20;;;5.60;;
1082;SDS011;530;51.448;7.238;2023-08-06T12:27:37;6.00;;;5.60;;
1082;SDS011;530;51.448;7.238;2023-08-06T12:30:04;5.80;;;5.40;;
1082;SDS011;530;51.448;7.238;2023-08-06T12:32:30;5.30;;;4.90;;
1082;SDS011;530;51.448;7.238;2023-08-06T12:34:56;5.33;;;4.93;;
1082;SDS011;530;51.448;7.238;2023-08-06T12:37:21;4.93;;;4.53;;
1082;SDS011;530;51.448;7.238;2023-08-06T12:39:48;5.20;;;4.70;;
1082;SDS011;530;51.448;7.238;2023-08-06T12:42:13;5.20;;;4.60;;
1082;SDS011;530;51.448;7.238;2023-08-06T12:44:39;4.90;;;4.50;;
1082;SDS011;530;51.448;7.238;2023-08-06T12:47:06;2.80;;;2.50;;
1082;SDS011;530;51.448;7.238;2023-08-06T12:49:32;2.30;;;2.13;;
1082;SDS011;530;51.448;7.238;2023-08-06T12:51:58;1.30;;;1.20;;
1082;SDS011;530;51.448;7.238;2023-08-06T12:54:27;1.63;;;1.47;;
1082;SDS011;530;51.448;7.238;2023-08-06T12:56:53;1.30;;;1.20;;
1082;SDS011;530;51.448;7.238;2023-08-06T12:59:19;1.00;;;0.90;;
1082;SDS011;530;51.448;7.238;2023-08-06T13:01:45;1.10;;;0.90;;
1082;SDS011;530;51.448;7.238;2023-08-06T13:04:11;0.90;;;0.77;;
1082;SDS011;530;51.448;7.238;2023-08-06T13:06:37;0.73;;;0.60;;
1082;SDS011;530;51.448;7.238;2023-08-06T13:09:08;1.23;;;0.90;;
1082;SDS011;530;51.448;7.238;2023-08-06T13:11:35;1.40;;;0.67;;
1082;SDS011;530;51.448;7.238;2023-08-06T13:14:06;1.20;;;1.00;;
1082;SDS011;530;51.448;7.238;2023-08-06T13:16:34;0.97;;;0.80;;
1082;SDS011;530;51.448;7.238;2023-08-06T13:19:01;1.87;;;0.60;;
1082;SDS011;530;51.448;7.238;2023-08-06T13:21:31;4.63;;;1.03;;
1082;SDS011;530;51.448;7.238;2023-08-06T13:23:58;0.87;;;0.63;;
1082;SDS011;530;51.448;7.238;2023-08-06T13:26:24;1.20;;;1.10;;
1082;SDS011;530;51.448;7.238;2023-08-06T13:28:49;1.57;;;1.10;;
1082;SDS011;530;51.448;7.238;2023-08-06T13:31:16;1.20;;;1.10;;
1082;SDS011;530;51.448;7.238;2023-08-06T13:33:42;1.07;;;0.97;;
1082;SDS011;530;51.448;7.238;2023-08-06T13:36:07;1.20;;;0.90;;
1082;SDS011;530;51.448;7.238;2023-08-06T13:38:33;1.10;;;0.80;;
1082;SDS011;530;51.448;7.238;2023-08-06T13:41:00;1.37;;;1.00;;
1082;SDS011;530;51.448;7.238;2023-08-06T13:43:26;2.43;;;1.20;;
1082;SDS011;530;51.448;7.238;2023-08-06T13:45:52;3.53;;;1.20;;
1082;SDS011;530;51.448;7.238;2023-08-06T13:48:18;1.47;;;1.03;;
1082;SDS011;530;51.448;7.238;2023-08-06T13:50:44;1.07;;;0.97;;
1082;SDS011;530;51.448;7.238;2023-08-06T13:53:10;1.10;;;0.83;;
1082;SDS011;530;51.448;7.238;2023-08-06T13:55:35;1.13;;;0.93;;
1082;SDS011;530;51.448;7.238;2023-08-06T13:58:01;1.40;;;1.10;;
1082;SDS011;530;51.448;7.238;2023-08-06T14:00:27;1.00;;;0.80;;
1082;SDS011;530;51.448;7.238;2023-08-06T14:02:53;1.83;;;0.97;;
1082;SDS011;530;51.448;7.238;2023-08-06T14:05:19;1.60;;;1.30;;
1082;SDS011;530;51.448;7.238;2023-08-06T14:07:44;4.40;;;1.70;;
1082;SDS011;530;51.448;7.238;2023-08-06T14:10:10;1.37;;;1.27;;
1082;SDS011;530;51.448;7.238;2023-08-06T14:12:36;1.80;;;1.53;;
1082;SDS011;530;51.448;7.238;2023-08-06T14:15:02;1.60;;;1.40;;
1082;SDS011;530;51.448;7.238;2023-08-06T14:17:28;2.03;;;1.90;;
1082;SDS011;530;51.448;7.238;2023-08-06T14:19:54;2.50;;;2.00;;
1082;SDS011;530;51.448;7.238;2023-08-06T14:22:21;3.90;;;2.37;;
1082;SDS011;530;51.448;7.238;2023-08-06T14:24:47;2.17;;;2.07;;
1082;SDS011;530;51.448;7.238;2023-08-06T14:27:13;2.67;;;2.47;;
1082;SDS011;530;51.448;7.238;2023-08-06T14:29:39;2.90;;;2.70;;
1082;SDS011;530;51.448;7.238;2023-08-06T14:32:05;3.00;;;2.70;;
1082;SDS011;530;51.448;7.238;2023-08-06T14:34:31;3.27;;;2.83;;
1082;SDS011;530;51.448;7.238;2023-08-06T14:36:56;3.77;;;2.70;;
1082;SDS011;530;51.448;7.238;2023-08-06T14:39:22;3.33;;;3.03;;
1082;SDS011;530;51.448;7.238;2023-08-06T14:41:48;3.87;;;3.17;;
1082;SDS011;530;51.448;7.238;2023-08-06T14:44:14;3.50;;;2.97;;
1082;SDS011;530;51.448;7.238;2023-08-06T14:46:39;4.00;;;3.60;;
1082;SDS011;530;51.448;7.238;2023-08-06T14:49:05;4.20;;;2.93;;
1082;SDS011;530;51.448;7.238;2023-08-06T14:51:30;5.67;;;3.13;;
1082;SDS011;530;51.448;7.238;2023-08-06T14:53:56;2.97;;;2.77;;
1082;SDS011;530;51.448;7.238;2023-08-06T14:56:22;3.33;;;2.80;;
1082;SDS011;530;51.448;7.238;2023-08-06T14:58:48;3.40;;;3.10;;
1082;SDS011;530;51.448;7.238;2023-08-06T15:01:14;3.63;;;3.33;;
1082;SDS011;530;51.448;7.238;2023-08-06T15:03:39;3.60;;;3.30;;
1082;SDS011;530;51.448;7.238;2023-08-06T15:06:05;3.57;;;3.20;;
1082;SDS011;530;51.448;7.238;2023-08-06T15:08:31;3.20;;;2.80;;
1082;SDS011;530;51.448;7.238;2023-08-06T15:10:56;4.43;;;4.03;;
1082;SDS011;530;51.448;7.238;2023-08-06T15:13:22;3.50;;;3.20;;
1082;SDS011;530;51.448;7.238;2023-08-06T15:15:48;3.40;;;3.10;;
1082;SDS011;530;51.448;7.238;2023-08-06T15:18:15;4.27;;;3.23;;
1082;SDS011;530;51.448;7.238;2023-08-06T15:20:41;3.80;;;3.33;;
1082;SDS011;530;51.448;7.238;2023-08-06T15:23:06;3.23;;;3.00;;
1082;SDS011;530;51.448;7.238;2023-08-06T15:25:32;3.50;;;3.20;;
1082;SDS011;530;51.448;7.238;2023-08-06T15:27:58;7.60;;;3.50;;
1082;SDS011;530;51.448;7.238;2023-08-06T15:30:23;3.60;;;2.90;;
1082;SDS011;530;51.448;7.238;2023-08-06T15:32:49;3.77;;;3.10;;
1082;SDS011;530;51.448;7.238;2023-08-06T15:35:15;4.27;;;3.23;;
1082;SDS011;530;51.448;7.238;2023-08-06T15:37:40;3.87;;;3.10;;
1082;SDS011;530;51.448;7.238;2023-08-06T15:40:06;4.67;;;2.73;;
1082;SDS011;530;51.448;7.238;2023-08-06T15:42:32;3.70;;;2.40;;
1082;SDS011;530;51.448;7.238;2023-08-06T15:44:58;3.53;;;2.80;;
1082;SDS011;530;51.448;7.238;2023-08-06T15:47:24;3.03;;;2.73;;
1082;SDS011;530;51.448;7.238;2023-08-06T15:49:50;3.60;;;2.80;;